Terminal Aerodrome Forecast
Issued by NWS

Home | Current Version | Previous Version | Text Only | Print | Product List | Glossary On
Versions: 1 2 3 4 5 6 7 8 9 10 11 12 13 14 15 16 17 18 19 20 21 22 23 24 25 26 27 28 29 30 31 32 33 34 35 36 37 38 39 40 41 42 43 44 45 46 47 48 49 50
000
FTUS45 KGJT 030914 AAB
TAFEGE
TAF AMD
KEGE 030914Z 0309/0406 26012KT P6SM VCSH BKN060 WS010/25030KT
      TEMPO 0309/0313 4SM -SN BKN030
     FM031400 25012KT P6SM VCSH SCT015 BKN040
     FM031900 27015G25KT P6SM VCSH SCT030 OVC050
     FM032200 27015G25KT 4SM -SHSN BKN025 OVC050
      AMD LTD TO CLD VIS AND WIND TIL 031400=

USA.gov is the U.S. government's official web portal to all federal, state and local government web resources and services.